createdAt,value
2019-04-06T00:01:37.615Z,42.20
2019-04-06T00:04:04.225Z,40.27
2019-04-06T00:06:30.703Z,38.00
2019-04-06T00:08:57.308Z,36.43
2019-04-06T00:11:23.715Z,37.07
2019-04-06T00:13:50.073Z,38.60
2019-04-06T00:16:16.696Z,36.67
2019-04-06T00:18:43.251Z,37.43
2019-04-06T00:21:09.596Z,37.90
2019-04-06T00:23:36.195Z,29.40
2019-04-06T00:26:02.691Z,31.17
2019-04-06T00:28:29.170Z,29.97
2019-04-06T00:30:55.785Z,30.80
2019-04-06T00:33:24.318Z,27.37
2019-04-06T00:35:50.768Z,29.00
2019-04-06T00:38:17.268Z,26.63
2019-04-06T00:40:43.701Z,28.63
2019-04-06T00:43:10.207Z,32.63
2019-04-06T00:45:36.681Z,31.10
2019-04-06T00:48:03.170Z,30.03
2019-04-06T00:50:29.657Z,31.60
2019-04-06T00:52:56.142Z,35.50
2019-04-06T00:55:22.631Z,35.43
2019-04-06T00:57:49.231Z,30.53
2019-04-06T01:00:15.815Z,33.17
2019-04-06T01:02:42.203Z,30.30
2019-04-06T01:05:08.871Z,32.87
2019-04-06T01:07:35.383Z,27.47
2019-04-06T01:10:02.063Z,34.83
2019-04-06T01:12:28.501Z,33.10
2019-04-06T01:14:54.952Z,30.57
2019-04-06T01:17:21.560Z,30.50
2019-04-06T01:19:48.144Z,30.97
2019-04-06T01:22:14.610Z,30.70
2019-04-06T01:24:41.109Z,32.73
2019-04-06T01:27:07.657Z,38.67
2019-04-06T01:29:34.158Z,32.10
2019-04-06T01:32:00.693Z,34.27
2019-04-06T01:34:27.367Z,31.97
2019-04-06T01:36:53.861Z,33.50
2019-04-06T01:39:20.360Z,26.83
2019-04-06T01:41:46.893Z,32.00
2019-04-06T01:44:13.370Z,29.37
2019-04-06T01:46:39.880Z,33.03
2019-04-06T01:49:06.393Z,26.73
2019-04-06T01:51:32.746Z,29.40
2019-04-06T01:54:02.280Z,28.07
2019-04-06T01:56:28.641Z,36.67
2019-04-06T01:58:55.053Z,34.23
2019-04-06T02:01:23.435Z,28.10
2019-04-06T02:03:49.935Z,30.17
2019-04-06T02:06:16.313Z,26.57
2019-04-06T02:08:42.906Z,27.17
2019-04-06T02:11:09.369Z,33.10
2019-04-06T02:13:35.991Z,31.07
2019-04-06T02:16:02.445Z,29.03
2019-04-06T02:18:29.043Z,32.13
2019-04-06T02:20:55.515Z,25.93
2019-04-06T02:23:22.232Z,30.20
2019-04-06T02:25:48.831Z,31.20
2019-04-06T02:28:15.349Z,28.07
2019-04-06T02:30:43.816Z,29.80
2019-04-06T02:33:14.210Z,30.53
2019-04-06T02:35:42.624Z,33.80
2019-04-06T02:38:11.020Z,29.67
2019-04-06T02:40:39.382Z,29.17
2019-04-06T02:43:07.841Z,28.33
2019-04-06T02:45:34.549Z,27.87
2019-04-06T02:48:01.270Z,31.30
2019-04-06T02:50:27.951Z,32.43
2019-04-06T02:52:54.510Z,30.13
2019-04-06T02:55:21.721Z,30.37
2019-04-06T02:57:48.154Z,31.10
2019-04-06T03:00:14.644Z,28.83
2019-04-06T03:02:41.063Z,28.77
2019-04-06T03:05:07.636Z,30.03
2019-04-06T03:07:34.157Z,31.83
2019-04-06T03:10:00.666Z,30.87
2019-04-06T03:12:27.188Z,27.63
2019-04-06T03:14:53.805Z,29.70
2019-04-06T03:17:20.350Z,28.97
2019-04-06T03:19:47.138Z,30.50
2019-04-06T03:22:13.699Z,32.00
2019-04-06T03:24:40.274Z,29.70
2019-04-06T03:27:06.752Z,31.13
2019-04-06T03:29:33.366Z,29.57
2019-04-06T03:32:00.196Z,27.80
2019-04-06T03:34:27.085Z,30.03
2019-04-06T03:36:53.754Z,28.57
2019-04-06T03:39:21.589Z,27.90
2019-04-06T03:41:48.175Z,29.23
2019-04-06T03:44:14.639Z,28.27
2019-04-06T03:46:41.275Z,32.53
2019-04-06T03:49:07.732Z,29.60
2019-04-06T03:51:34.237Z,28.70
2019-04-06T03:54:00.588Z,29.07
2019-04-06T03:56:27.121Z,32.13
2019-04-06T03:58:53.695Z,28.83
2019-04-06T04:01:20.257Z,29.97
2019-04-06T04:03:46.879Z,30.50
2019-04-06T04:06:13.336Z,30.13
2019-04-06T04:08:39.798Z,32.53
2019-04-06T04:11:06.342Z,26.67
2019-04-06T04:13:32.736Z,29.93
2019-04-06T04:15:59.209Z,30.90
2019-04-06T04:18:25.924Z,33.30
2019-04-06T04:20:52.484Z,31.80
2019-04-06T04:23:18.857Z,28.77
2019-04-06T04:25:45.265Z,32.87
2019-04-06T04:28:11.790Z,31.37
2019-04-06T04:30:38.403Z,30.03
2019-04-06T04:33:04.897Z,29.80
2019-04-06T04:35:31.526Z,30.60
2019-04-06T04:37:58.251Z,28.57
2019-04-06T04:40:24.796Z,37.63
2019-04-06T04:42:51.314Z,31.63
2019-04-06T04:45:18.148Z,32.50
2019-04-06T04:47:44.960Z,29.47
2019-04-06T04:50:13.213Z,32.83
2019-04-06T04:52:39.671Z,31.13
2019-04-06T04:55:06.144Z,27.03
2019-04-06T04:57:40.960Z,29.47
2019-04-06T05:00:04.781Z,28.83
2019-04-06T05:02:31.444Z,30.60
2019-04-06T05:04:58.024Z,33.80
2019-04-06T05:07:24.538Z,29.07
2019-04-06T05:09:51.854Z,34.33
2019-04-06T05:12:18.251Z,31.30
2019-04-06T05:14:46.757Z,31.20
2019-04-06T05:17:13.234Z,27.57
2019-04-06T05:19:39.735Z,28.67
2019-04-06T05:22:06.147Z,31.00
2019-04-06T05:24:32.620Z,29.80
2019-04-06T05:26:59.098Z,26.30
2019-04-06T05:29:25.469Z,31.53
2019-04-06T05:31:51.999Z,31.40
2019-04-06T05:34:18.662Z,29.33
2019-04-06T05:36:45.281Z,27.23
2019-04-06T05:39:11.866Z,29.03
2019-04-06T05:41:38.247Z,27.30
2019-04-06T05:44:04.712Z,26.90
2019-04-06T05:46:31.070Z,27.23
2019-04-06T05:48:57.583Z,29.87
2019-04-06T05:51:24.104Z,30.90
2019-04-06T05:53:50.526Z,29.37
2019-04-06T05:56:16.898Z,27.83
2019-04-06T05:58:44.409Z,29.20
2019-04-06T06:01:11.438Z,28.40
2019-04-06T06:03:40.143Z,28.83
2019-04-06T06:06:06.435Z,28.87
2019-04-06T06:08:32.910Z,34.90
2019-04-06T06:11:02.607Z,33.70
2019-04-06T06:13:29.396Z,31.33
2019-04-06T06:15:55.802Z,28.23
2019-04-06T06:18:27.497Z,26.63
2019-04-06T06:20:50.652Z,27.20
2019-04-06T06:23:17.147Z,29.27
2019-04-06T06:25:43.695Z,32.07
2019-04-06T06:28:14.962Z,29.00
2019-04-06T06:30:38.408Z,30.50
2019-04-06T06:33:04.889Z,30.57
2019-04-06T06:35:31.355Z,32.17
2019-04-06T06:37:57.807Z,28.00
2019-04-06T06:40:24.386Z,31.33
2019-04-06T06:42:50.861Z,30.33
2019-04-06T06:45:17.311Z,29.57
2019-04-06T06:47:43.658Z,29.67
2019-04-06T06:50:10.328Z,27.83
2019-04-06T06:52:36.792Z,28.97
2019-04-06T06:55:03.955Z,29.23
2019-04-06T06:57:30.679Z,27.93
2019-04-06T06:59:57.298Z,26.77
2019-04-06T07:02:23.962Z,27.43
2019-04-06T07:04:50.423Z,30.17
2019-04-06T07:07:16.897Z,26.70
2019-04-06T07:09:43.377Z,28.83
2019-04-06T07:12:09.845Z,30.30
2019-04-06T07:14:36.307Z,29.90
2019-04-06T07:17:02.679Z,27.37
2019-04-06T07:19:29.347Z,29.13
2019-04-06T07:21:55.907Z,29.43
2019-04-06T07:24:22.379Z,29.33
2019-04-06T07:26:48.872Z,29.80
2019-04-06T07:29:15.571Z,31.00
2019-04-06T07:31:42.111Z,29.73
2019-04-06T07:34:08.550Z,31.43
2019-04-06T07:36:35.119Z,28.37
2019-04-06T07:39:01.662Z,28.40
2019-04-06T07:41:28.508Z,31.73
2019-04-06T07:43:55.134Z,31.57
2019-04-06T07:46:21.857Z,30.00
2019-04-06T07:48:48.841Z,30.67
2019-04-06T07:51:15.307Z,30.70
2019-04-06T07:53:41.880Z,30.53
2019-04-06T07:56:08.558Z,29.33
2019-04-06T07:58:35.123Z,32.13
2019-04-06T08:01:01.590Z,35.67
2019-04-06T08:03:28.133Z,28.97
2019-04-06T08:05:54.606Z,30.33
2019-04-06T08:08:20.987Z,30.83
2019-04-06T08:10:47.462Z,28.50
2019-04-06T08:13:13.919Z,31.53
2019-04-06T08:15:40.387Z,32.63
2019-04-06T08:18:06.844Z,29.63
2019-04-06T08:20:33.540Z,29.67
2019-04-06T08:23:00.018Z,30.40
2019-04-06T08:25:26.663Z,29.10
2019-04-06T08:27:53.251Z,28.13
2019-04-06T08:30:19.881Z,29.10
2019-04-06T08:32:46.431Z,26.20
2019-04-06T08:35:23.946Z,31.33
2019-04-06T08:37:41.749Z,32.40
2019-04-06T08:40:08.303Z,21.40
2019-04-06T08:42:34.768Z,24.00
2019-04-06T08:45:01.307Z,23.20
2019-04-06T08:47:27.991Z,22.77
2019-04-06T08:49:54.634Z,24.27
2019-04-06T08:52:21.171Z,19.63
2019-04-06T08:54:47.542Z,22.13
2019-04-06T08:57:15.222Z,23.60
2019-04-06T08:59:41.695Z,24.32
2019-04-06T09:02:08.143Z,21.80
2019-04-06T09:04:34.492Z,22.67
2019-04-06T09:07:01.079Z,19.52
2019-04-06T09:09:27.765Z,20.10
2019-04-06T09:11:54.274Z,18.12
2019-04-06T09:14:20.865Z,16.10
2019-04-06T09:16:47.351Z,21.68
2019-04-06T09:19:13.695Z,18.10
2019-04-06T09:21:40.067Z,18.65
2019-04-06T09:24:06.638Z,20.43
2019-04-06T09:26:33.138Z,18.42
2019-04-06T09:28:59.981Z,18.10
2019-04-06T09:31:26.575Z,19.27
2019-04-06T09:33:53.236Z,17.73
2019-04-06T09:36:19.725Z,20.70
2019-04-06T09:38:46.409Z,17.92
2019-04-06T09:41:12.839Z,18.85
2019-04-06T09:43:39.283Z,17.27
2019-04-06T09:46:07.611Z,18.17
2019-04-06T09:48:35.889Z,16.52
2019-04-06T09:51:04.352Z,18.37
2019-04-06T09:53:33.588Z,17.62
2019-04-06T09:56:02.195Z,15.75
2019-04-06T09:58:30.543Z,15.68
2019-04-06T10:00:58.953Z,16.10
2019-04-06T10:03:27.480Z,16.30
2019-04-06T10:05:55.883Z,14.05
2019-04-06T10:08:22.355Z,17.40
2019-04-06T10:10:50.707Z,13.95
2019-04-06T10:13:19.114Z,18.23
2019-04-06T10:15:47.473Z,15.30
2019-04-06T10:18:16.084Z,17.90
2019-04-06T10:20:50.575Z,19.25
2019-04-06T10:23:19.047Z,15.93
2019-04-06T10:25:47.388Z,17.40
2019-04-06T10:28:15.788Z,15.85
2019-04-06T10:30:44.116Z,13.90
2019-04-06T10:33:12.547Z,15.32
2019-04-06T10:35:40.892Z,16.45
2019-04-06T10:38:09.247Z,16.97
2019-04-06T10:40:36.611Z,16.02
2019-04-06T10:43:05.007Z,14.47
2019-04-06T10:45:33.449Z,14.83
2019-04-06T10:48:01.776Z,13.18
2019-04-06T10:50:30.244Z,12.88
2019-04-06T10:52:58.890Z,14.20
2019-04-06T10:55:39.356Z,13.53
2019-04-06T10:58:07.803Z,11.68
2019-04-06T11:00:36.409Z,12.85
2019-04-06T11:03:04.839Z,9.60
2019-04-06T11:05:33.197Z,11.73
2019-04-06T11:08:01.502Z,12.05
2019-04-06T11:10:29.917Z,10.03
2019-04-06T11:12:58.422Z,9.08
2019-04-06T11:15:26.828Z,10.40
2019-04-06T11:17:55.457Z,11.35
2019-04-06T11:20:32.620Z,10.13
2019-04-06T11:23:00.932Z,10.23
2019-04-06T11:25:29.289Z,9.65
2019-04-06T11:27:57.869Z,11.50
2019-04-06T11:30:26.238Z,9.78
2019-04-06T11:32:54.542Z,9.63
2019-04-06T11:35:22.815Z,9.30
2019-04-06T11:37:52.488Z,9.48
2019-04-06T11:40:20.855Z,12.82
2019-04-06T11:42:48.406Z,9.30
2019-04-06T11:45:16.829Z,9.23
2019-04-06T11:47:45.175Z,11.10
2019-04-06T11:50:13.885Z,9.75
2019-04-06T11:52:48.115Z,10.80
2019-04-06T11:55:15.603Z,11.25
2019-04-06T11:57:43.910Z,9.78
2019-04-06T12:00:24.463Z,10.45
2019-04-06T12:02:42.683Z,8.80
2019-04-06T12:05:11.081Z,9.68
2019-04-06T12:07:37.541Z,10.15
2019-04-06T12:10:06.036Z,9.78
2019-04-06T12:12:34.385Z,10.53
2019-04-06T12:15:04.446Z,10.35
2019-04-06T12:17:32.993Z,9.83
2019-04-06T12:20:01.704Z,10.43
2019-04-06T12:22:30.261Z,9.70
2019-04-06T12:24:58.871Z,9.00
2019-04-06T12:27:27.519Z,10.45
2019-04-06T12:29:56.000Z,11.78
2019-04-06T12:32:24.432Z,11.45
2019-04-06T12:34:50.967Z,11.08
2019-04-06T12:37:19.330Z,9.75
2019-04-06T12:39:53.473Z,9.35
2019-04-06T12:42:17.879Z,9.10
2019-04-06T12:44:52.231Z,9.18
2019-04-06T12:47:18.751Z,9.18
2019-04-06T12:49:47.266Z,9.05
2019-04-06T12:52:15.814Z,8.83
2019-04-06T12:54:44.312Z,8.23
2019-04-06T12:57:12.607Z,9.88
2019-04-06T12:59:41.002Z,8.05
2019-04-06T13:02:09.345Z,8.40
2019-04-06T13:04:37.745Z,8.60
2019-04-06T13:07:06.127Z,8.10
2019-04-06T13:09:34.492Z,8.63
2019-04-06T13:12:03.236Z,8.20
2019-04-06T13:14:30.832Z,9.68
2019-04-06T13:16:59.185Z,8.55
2019-04-06T13:19:27.546Z,8.73
2019-04-06T13:21:55.821Z,9.48
2019-04-06T13:24:24.174Z,9.10
2019-04-06T13:26:52.871Z,8.00
2019-04-06T13:29:21.347Z,9.68
2019-04-06T13:31:48.179Z,8.70
2019-04-06T13:34:14.700Z,9.68
2019-04-06T13:36:43.100Z,8.75
2019-04-06T13:39:11.588Z,9.20
2019-04-06T13:41:40.226Z,9.30
2019-04-06T13:44:08.491Z,10.98
2019-04-06T13:46:36.923Z,8.18
2019-04-06T13:49:05.501Z,8.60
2019-04-06T13:51:36.321Z,8.43
2019-04-06T13:54:04.780Z,10.35
2019-04-06T13:56:33.176Z,8.30
2019-04-06T13:59:01.692Z,8.40
2019-04-06T14:01:30.474Z,8.98
2019-04-06T14:03:58.920Z,11.57
2019-04-06T14:06:27.422Z,10.18
2019-04-06T14:08:55.823Z,11.80
2019-04-06T14:11:23.218Z,8.38
2019-04-06T14:13:51.480Z,11.60
2019-04-06T14:16:19.999Z,8.28
2019-04-06T14:18:48.414Z,9.98
2019-04-06T14:21:14.583Z,8.93
2019-04-06T14:23:42.939Z,8.10
2019-04-06T14:26:13.207Z,9.73
2019-04-06T14:28:41.488Z,8.50
2019-04-06T14:31:09.904Z,11.63
2019-04-06T14:33:44.090Z,9.15
2019-04-06T14:36:12.450Z,8.53
2019-04-06T14:38:41.145Z,13.55
2019-04-06T14:41:09.472Z,8.70
2019-04-06T14:43:37.909Z,8.28
2019-04-06T14:46:06.596Z,8.60
2019-04-06T14:48:34.933Z,8.53
2019-04-06T14:51:03.175Z,8.48
2019-04-06T14:53:31.738Z,7.90
2019-04-06T14:56:05.996Z,7.28
2019-04-06T14:58:34.320Z,8.43
2019-04-06T15:01:02.986Z,8.03
2019-04-06T15:03:31.371Z,10.98
2019-04-06T15:05:59.719Z,9.55
2019-04-06T15:08:28.123Z,8.98
2019-04-06T15:10:56.473Z,8.60
2019-04-06T15:13:24.774Z,8.00
2019-04-06T15:15:53.301Z,7.97
2019-04-06T15:18:21.721Z,9.05
2019-04-06T15:20:49.997Z,8.43
2019-04-06T15:23:19.011Z,9.70
2019-04-06T15:25:47.257Z,8.13
2019-04-06T15:28:15.522Z,7.22
2019-04-06T15:30:44.054Z,7.80
2019-04-06T15:33:12.461Z,8.00
2019-04-06T15:35:40.826Z,8.23
2019-04-06T15:38:09.240Z,8.58
2019-04-06T15:40:37.854Z,7.40
2019-04-06T15:43:06.514Z,7.65
2019-04-06T15:45:35.119Z,8.78
2019-04-06T15:48:03.472Z,9.33
2019-04-06T15:50:31.867Z,6.80
2019-04-06T15:53:00.336Z,7.10
2019-04-06T15:55:28.737Z,7.55
2019-04-06T15:57:57.003Z,6.87
2019-04-06T16:00:25.387Z,7.62
2019-04-06T16:02:53.639Z,7.47
2019-04-06T16:05:21.935Z,10.28
2019-04-06T16:07:50.329Z,9.28
2019-04-06T16:10:21.606Z,11.03
2019-04-06T16:12:49.862Z,9.58
2019-04-06T16:15:17.366Z,9.48
2019-04-06T16:17:45.908Z,11.80
2019-04-06T16:20:14.632Z,13.43
2019-04-06T16:22:43.069Z,9.40
2019-04-06T16:25:11.384Z,8.40
2019-04-06T16:27:39.925Z,10.80
2019-04-06T16:30:08.544Z,8.63
2019-04-06T16:32:37.381Z,10.32
2019-04-06T16:35:05.889Z,9.08
2019-04-06T16:37:36.210Z,14.05
2019-04-06T16:40:06.867Z,11.12
2019-04-06T16:42:35.233Z,9.68
2019-04-06T16:45:04.277Z,13.95
2019-04-06T16:47:32.666Z,9.88
2019-04-06T16:50:02.050Z,10.10
2019-04-06T16:52:29.982Z,9.95
2019-04-06T16:54:58.426Z,8.28
2019-04-06T16:57:26.728Z,14.20
2019-04-06T16:59:55.034Z,8.43
2019-04-06T17:02:24.882Z,8.38
2019-04-06T17:04:53.734Z,8.08
2019-04-06T17:07:34.148Z,8.70
2019-04-06T17:10:02.424Z,8.85
2019-04-06T17:12:30.832Z,8.58
2019-04-06T17:14:59.484Z,7.70
2019-04-06T17:17:27.933Z,7.60
2019-04-06T17:19:56.277Z,11.20
2019-04-06T17:22:23.820Z,8.60
2019-04-06T17:24:54.822Z,8.48
2019-04-06T17:27:23.299Z,9.23
2019-04-06T17:29:51.778Z,8.60
2019-04-06T17:32:20.562Z,9.68
2019-04-06T17:34:54.862Z,9.83
2019-04-06T17:37:20.201Z,8.75
2019-04-06T17:39:48.291Z,8.85
2019-04-06T17:42:19.377Z,11.48
2019-04-06T17:44:47.632Z,8.60
2019-04-06T17:47:15.906Z,7.78
2019-04-06T17:49:44.294Z,7.53
2019-04-06T17:52:12.801Z,11.55
2019-04-06T17:54:41.260Z,8.55
2019-04-06T17:57:09.629Z,8.30
2019-04-06T17:59:38.078Z,10.18
2019-04-06T18:02:06.504Z,11.38
2019-04-06T18:04:34.831Z,11.95
2019-04-06T18:07:03.215Z,12.47
2019-04-06T18:09:31.712Z,9.98
2019-04-06T18:12:00.191Z,10.23
2019-04-06T18:14:26.767Z,10.43
2019-04-06T18:16:53.144Z,10.03
2019-04-06T18:19:19.655Z,11.63
2019-04-06T18:21:46.216Z,7.72
2019-04-06T18:24:12.643Z,12.10
2019-04-06T18:26:38.997Z,8.95
2019-04-06T18:29:05.471Z,9.80
2019-04-06T18:31:31.958Z,9.33
2019-04-06T18:33:59.142Z,9.30
2019-04-06T18:36:27.778Z,8.75
2019-04-06T18:38:56.211Z,8.35
2019-04-06T18:41:22.670Z,8.63
2019-04-06T18:43:49.038Z,8.23
2019-04-06T18:46:15.973Z,11.45
2019-04-06T18:48:42.721Z,9.43
2019-04-06T18:51:09.139Z,9.28
2019-04-06T18:53:35.707Z,8.60
2019-04-06T18:56:02.194Z,8.93
2019-04-06T18:58:28.788Z,8.10
2019-04-06T19:00:55.164Z,9.53
2019-04-06T19:03:22.041Z,9.05
2019-04-06T19:05:50.039Z,9.35
2019-04-06T19:08:16.851Z,9.10
2019-04-06T19:10:43.433Z,8.58
2019-04-06T19:13:09.989Z,7.97
2019-04-06T19:15:36.662Z,8.20
2019-04-06T19:18:03.212Z,8.30
2019-04-06T19:20:29.687Z,8.07
2019-04-06T19:22:56.038Z,9.33
2019-04-06T19:25:22.431Z,9.17
2019-04-06T19:27:48.879Z,10.60
2019-04-06T19:30:15.845Z,9.10
2019-04-06T19:32:42.628Z,18.30
2019-04-06T19:35:09.475Z,17.17
2019-04-06T19:37:36.207Z,15.37
2019-04-06T19:40:04.980Z,18.63
2019-04-06T19:42:31.466Z,15.93
2019-04-06T19:44:58.071Z,13.70
2019-04-06T19:47:24.930Z,18.73
2019-04-06T19:49:51.530Z,11.70
2019-04-06T19:52:18.085Z,8.77
2019-04-06T19:54:44.427Z,10.93
2019-04-06T19:57:10.923Z,9.27
2019-04-06T19:59:37.454Z,8.70
2019-04-06T20:02:04.181Z,12.53
2019-04-06T20:04:30.833Z,8.20
2019-04-06T20:06:57.459Z,10.17
2019-04-06T20:09:24.293Z,8.30
2019-04-06T20:11:51.382Z,8.33
2019-04-06T20:14:18.043Z,8.50
2019-04-06T20:16:44.418Z,11.33
2019-04-06T20:19:10.966Z,11.23
2019-04-06T20:21:37.449Z,9.40
2019-04-06T20:24:04.185Z,9.07
2019-04-06T20:26:32.121Z,9.53
2019-04-06T20:28:58.798Z,10.73
2019-04-06T20:31:25.367Z,9.07
2019-04-06T20:33:53.321Z,12.87
2019-04-06T20:36:20.396Z,11.77
2019-04-06T20:38:47.150Z,9.40
2019-04-06T20:41:13.726Z,8.80
2019-04-06T20:43:40.297Z,11.50
2019-04-06T20:46:06.639Z,9.00
2019-04-06T20:48:33.693Z,9.30
2019-04-06T20:51:00.071Z,8.87
2019-04-06T20:53:26.645Z,7.90
2019-04-06T20:55:53.103Z,8.47
2019-04-06T20:58:19.465Z,7.60
2019-04-06T21:00:46.122Z,8.40
2019-04-06T21:03:13.091Z,7.70
2019-04-06T21:05:39.554Z,8.80
2019-04-06T21:08:06.020Z,7.83
2019-04-06T21:10:32.661Z,10.57
2019-04-06T21:12:59.267Z,9.00
2019-04-06T21:15:25.984Z,9.00
2019-04-06T21:17:53.301Z,10.90
2019-04-06T21:20:19.988Z,9.00
2019-04-06T21:22:46.463Z,9.77
2019-04-06T21:25:12.812Z,8.53
2019-04-06T21:27:39.423Z,12.20
2019-04-06T21:30:06.339Z,8.73
2019-04-06T21:32:32.758Z,9.93
2019-04-06T21:34:59.205Z,8.87
2019-04-06T21:37:25.675Z,9.43
2019-04-06T21:39:52.232Z,11.90
2019-04-06T21:42:18.575Z,9.50
2019-04-06T21:44:44.954Z,10.97
2019-04-06T21:47:12.093Z,10.33
2019-04-06T21:49:38.987Z,9.40
2019-04-06T21:52:05.647Z,9.70
2019-04-06T21:54:32.675Z,9.97
2019-04-06T21:56:59.341Z,10.63
2019-04-06T21:59:25.954Z,9.37
2019-04-06T22:01:52.453Z,7.90
2019-04-06T22:04:25.345Z,8.53
2019-04-06T22:06:47.341Z,8.03
2019-04-06T22:09:14.047Z,8.07
2019-04-06T22:11:40.584Z,8.50
2019-04-06T22:14:07.037Z,8.40
2019-04-06T22:16:33.657Z,8.10
2019-04-06T22:19:00.158Z,7.90
2019-04-06T22:21:27.119Z,8.67
2019-04-06T22:23:53.853Z,9.13
2019-04-06T22:26:20.304Z,9.20
2019-04-06T22:28:46.872Z,11.27
2019-04-06T22:31:14.256Z,9.93
2019-04-06T22:33:41.382Z,8.23
2019-04-06T22:36:07.817Z,7.67
2019-04-06T22:38:34.328Z,7.30
2019-04-06T22:41:01.263Z,8.33
2019-04-06T22:43:28.283Z,8.23
2019-04-06T22:45:54.811Z,7.87
2019-04-06T22:48:21.251Z,8.27
2019-04-06T22:50:47.643Z,10.27
2019-04-06T22:53:14.458Z,7.40
2019-04-06T22:55:41.409Z,7.97
2019-04-06T22:58:08.194Z,9.67
2019-04-06T23:00:36.612Z,7.07
2019-04-06T23:03:04.964Z,9.43
2019-04-06T23:05:33.257Z,8.77
2019-04-06T23:07:59.914Z,9.00
2019-04-06T23:10:26.644Z,7.17
2019-04-06T23:12:53.088Z,9.30
2019-04-06T23:15:19.538Z,7.93
2019-04-06T23:17:46.030Z,8.43
2019-04-06T23:20:12.633Z,7.83
2019-04-06T23:22:39.091Z,8.07
2019-04-06T23:25:05.563Z,8.60
2019-04-06T23:27:31.910Z,11.03
2019-04-06T23:29:58.820Z,8.70
2019-04-06T23:32:25.375Z,9.13
2019-04-06T23:34:59.320Z,8.23
2019-04-06T23:37:20.059Z,10.07
2019-04-06T23:39:46.529Z,10.33
2019-04-06T23:42:13.721Z,7.43
2019-04-06T23:44:40.283Z,8.40
2019-04-06T23:47:06.853Z,6.40
2019-04-06T23:49:33.766Z,8.20
2019-04-06T23:52:00.396Z,7.27
2019-04-06T23:54:26.783Z,7.23
2019-04-06T23:56:53.321Z,9.97
2019-04-06T23:59:20.024Z,9.50
